Terminal Aerodrome Forecast
Issued by NWS Cleveland, OH

Home | Current Version | Previous Version | Text Only | Print | Product List | Glossary On
Versions: 1 2 3 4 5 6 7 8 9 10 11 12 13 14 15 16 17 18 19 20
000
FTUS41 KCLE 141232 AAA
TAFTOL
TAF AMD
KTOL 141232Z 1413/1512 32008KT P6SM SCT020
     FM142000 28007KT P6SM FEW025 SCT250
     FM150300 VRB03KT P6SM SCT050 BKN150=

USA.gov is the U.S. government's official web portal to all federal, state and local government web resources and services.